sensor_id;sensor_type;location;lat;lon;timestamp;pressure;altitude;pressure_sealevel;temperature;humidity
19023;BME280;35226;48.606;8.858;2022-07-23T00:01:28;96330.09;;;21.40;100.00
19023;BME280;35226;48.606;8.858;2022-07-23T00:03:55;96324.47;;;21.40;100.00
19023;BME280;35226;48.606;8.858;2022-07-23T00:06:22;96326.28;;;21.43;100.00
19023;BME280;35226;48.606;8.858;2022-07-23T00:08:48;96337.53;;;21.43;100.00
19023;BME280;35226;48.606;8.858;2022-07-23T00:11:13;96340.31;;;21.43;100.00
19023;BME280;35226;48.606;8.858;2022-07-23T00:13:39;96338.78;;;21.36;100.00
19023;BME280;35226;48.606;8.858;2022-07-23T00:16:05;96327.81;;;21.27;100.00
19023;BME280;35226;48.606;8.858;2022-07-23T00:18:31;96329.09;;;21.26;100.00
19023;BME280;35226;48.606;8.858;2022-07-23T00:20:57;96339.34;;;21.24;100.00
19023;BME280;35226;48.606;8.858;2022-07-23T00:23:22;96322.97;;;21.17;100.00
19023;BME280;35226;48.606;8.858;2022-07-23T00:25:50;96308.69;;;20.98;100.00
19023;BME280;35226;48.606;8.858;2022-07-23T00:28:17;96321.75;;;20.95;100.00
19023;BME280;35226;48.606;8.858;2022-07-23T00:30:43;96301.31;;;20.95;100.00
19023;BME280;35226;48.606;8.858;2022-07-23T00:33:09;96280.88;;;20.94;100.00
19023;BME280;35226;48.606;8.858;2022-07-23T00:35:36;96309.25;;;20.85;100.00
19023;BME280;35226;48.606;8.858;2022-07-23T00:38:03;96311.78;;;20.83;100.00
19023;BME280;35226;48.606;8.858;2022-07-23T00:40:30;96305.38;;;20.88;100.00
19023;BME280;35226;48.606;8.858;2022-07-23T00:42:56;96308.19;;;20.94;100.00
19023;BME280;35226;48.606;8.858;2022-07-23T00:45:22;96312.03;;;20.91;100.00
19023;BME280;35226;48.606;8.858;2022-07-23T00:47:48;96293.88;;;20.86;100.00
19023;BME280;35226;48.606;8.858;2022-07-23T00:50:14;96294.16;;;20.88;100.00
19023;BME280;35226;48.606;8.858;2022-07-23T00:52:41;96314.84;;;20.85;100.00
19023;BME280;35226;48.606;8.858;2022-07-23T00:55:08;96296.47;;;20.79;100.00
19023;BME280;35226;48.606;8.858;2022-07-23T00:57:35;96280.88;;;20.66;100.00
19023;BME280;35226;48.606;8.858;2022-07-23T01:00:02;96286.78;;;20.63;100.00
19023;BME280;35226;48.606;8.858;2022-07-23T01:02:28;96282.69;;;20.64;100.00
19023;BME280;35226;48.606;8.858;2022-07-23T01:04:54;96287.03;;;20.59;100.00
19023;BME280;35226;48.606;8.858;2022-07-23T01:07:20;96288.56;;;20.60;100.00
19023;BME280;35226;48.606;8.858;2022-07-23T01:09:46;96289.84;;;20.59;100.00
19023;BME280;35226;48.606;8.858;2022-07-23T01:12:13;96271.72;;;20.55;100.00
19023;BME280;35226;48.606;8.858;2022-07-23T01:14:38;96260.22;;;20.58;100.00
19023;BME280;35226;48.606;8.858;2022-07-23T01:17:04;96243.38;;;20.58;100.00
19023;BME280;35226;48.606;8.858;2022-07-23T01:19:30;96224.78;;;20.55;100.00
19023;BME280;35226;48.606;8.858;2022-07-23T01:21:57;96204.63;;;20.51;100.00
19023;BME280;35226;48.606;8.858;2022-07-23T01:24:23;96190.34;;;20.55;100.00
19023;BME280;35226;48.606;8.858;2022-07-23T01:27:03;96194.69;;;20.45;100.00
19023;BME280;35226;48.606;8.858;2022-07-23T01:29:31;96247.44;;;20.29;100.00
19023;BME280;35226;48.606;8.858;2022-07-23T01:32:01;96268.13;;;20.32;100.00
19023;BME280;35226;48.606;8.858;2022-07-23T01:34:27;96261.97;;;20.22;100.00
19023;BME280;35226;48.606;8.858;2022-07-23T01:36:52;96248.97;;;20.14;100.00
19023;BME280;35226;48.606;8.858;2022-07-23T01:39:18;96246.16;;;20.08;100.00
19023;BME280;35226;48.606;8.858;2022-07-23T01:41:44;96230.34;;;20.05;100.00
19023;BME280;35226;48.606;8.858;2022-07-23T01:44:10;96230.09;;;19.98;100.00
19023;BME280;35226;48.606;8.858;2022-07-23T01:46:38;96237.97;;;19.99;100.00
19023;BME280;35226;48.606;8.858;2022-07-23T01:49:04;96244.13;;;19.98;100.00
19023;BME280;35226;48.606;8.858;2022-07-23T01:51:48;96256.06;;;19.98;100.00
19023;BME280;35226;48.606;8.858;2022-07-23T01:54:33;96254.03;;;19.93;100.00
19023;BME280;35226;48.606;8.858;2022-07-23T01:57:00;96247.41;;;19.90;100.00
19023;BME280;35226;48.606;8.858;2022-07-23T01:59:27;96245.09;;;19.89;100.00
19023;BME280;35226;48.606;8.858;2022-07-23T02:01:53;96248.13;;;19.80;100.00
19023;BME280;35226;48.606;8.858;2022-07-23T02:04:20;96252.72;;;19.72;100.00
19023;BME280;35226;48.606;8.858;2022-07-23T02:06:46;96260.38;;;19.77;100.00
19023;BME280;35226;48.606;8.858;2022-07-23T02:09:12;96262.91;;;19.75;100.00
19023;BME280;35226;48.606;8.858;2022-07-23T02:11:38;96264.41;;;19.70;100.00
19023;BME280;35226;48.606;8.858;2022-07-23T02:14:04;96266.50;;;19.81;100.00
19023;BME280;35226;48.606;8.858;2022-07-23T02:16:30;96270.06;;;19.81;100.00
19023;BME280;35226;48.606;8.858;2022-07-23T02:19:01;96284.88;;;19.99;100.00
19023;BME280;35226;48.606;8.858;2022-07-23T02:21:27;96293.06;;;20.02;100.00
19023;BME280;35226;48.606;8.858;2022-07-23T02:23:52;96298.44;;;20.11;100.00
19023;BME280;35226;48.606;8.858;2022-07-23T02:26:19;96318.59;;;20.15;100.00
19023;BME280;35226;48.606;8.858;2022-07-23T02:28:45;96318.84;;;20.23;100.00
19023;BME280;35226;48.606;8.858;2022-07-23T02:31:10;96326.06;;;20.35;100.00
19023;BME280;35226;48.606;8.858;2022-07-23T02:33:36;96319.94;;;20.37;100.00
19023;BME280;35226;48.606;8.858;2022-07-23T02:36:02;96316.38;;;20.36;100.00
19023;BME280;35226;48.606;8.858;2022-07-23T02:38:28;96323.50;;;20.37;100.00
19023;BME280;35226;48.606;8.858;2022-07-23T02:40:53;96324.78;;;20.36;100.00
19023;BME280;35226;48.606;8.858;2022-07-23T02:43:19;96321.97;;;20.36;100.00
19023;BME280;35226;48.606;8.858;2022-07-23T02:45:45;96328.56;;;20.33;100.00
19023;BME280;35226;48.606;8.858;2022-07-23T02:48:11;96333.91;;;20.31;100.00
19023;BME280;35226;48.606;8.858;2022-07-23T02:50:38;96342.84;;;20.29;100.00
19023;BME280;35226;48.606;8.858;2022-07-23T02:53:04;96346.41;;;20.30;100.00
19023;BME280;35226;48.606;8.858;2022-07-23T02:55:30;96344.88;;;20.23;100.00
19023;BME280;35226;48.606;8.858;2022-07-23T02:58:00;96350.47;;;20.18;100.00
19023;BME280;35226;48.606;8.858;2022-07-23T03:00:26;96355.06;;;20.15;100.00
19023;BME280;35226;48.606;8.858;2022-07-23T03:02:52;96353.25;;;20.12;100.00
19023;BME280;35226;48.606;8.858;2022-07-23T03:05:18;96351.72;;;20.11;100.00
19023;BME280;35226;48.606;8.858;2022-07-23T03:07:43;96361.69;;;20.12;100.00
19023;BME280;35226;48.606;8.858;2022-07-23T03:10:09;96350.19;;;20.10;100.00
19023;BME280;35226;48.606;8.858;2022-07-23T03:12:35;96351.47;;;20.09;100.00
19023;BME280;35226;48.606;8.858;2022-07-23T03:15:02;96351.22;;;20.07;100.00
19023;BME280;35226;48.606;8.858;2022-07-23T03:17:27;96349.16;;;20.02;100.00
19023;BME280;35226;48.606;8.858;2022-07-23T03:19:53;96351.69;;;19.94;100.00
19023;BME280;35226;48.606;8.858;2022-07-23T03:22:18;96338.94;;;19.93;100.00
19023;BME280;35226;48.606;8.858;2022-07-23T03:24:44;96345.03;;;19.92;100.00
19023;BME280;35226;48.606;8.858;2022-07-23T03:27:22;96345.03;;;19.92;100.00
19023;BME280;35226;48.606;8.858;2022-07-23T03:29:49;96343.00;;;19.87;100.00
19023;BME280;35226;48.606;8.858;2022-07-23T03:32:15;96335.59;;;19.84;100.00
19023;BME280;35226;48.606;8.858;2022-07-23T03:34:41;96330.19;;;19.80;100.00
19023;BME280;35226;48.606;8.858;2022-07-23T03:37:06;96331.22;;;19.77;100.00
19023;BME280;35226;48.606;8.858;2022-07-23T03:39:34;96329.16;;;19.72;100.00
19023;BME280;35226;48.606;8.858;2022-07-23T03:42:00;96329.16;;;19.72;100.00
19023;BME280;35226;48.606;8.858;2022-07-23T03:44:27;96342.41;;;19.66;100.00
19023;BME280;35226;48.606;8.858;2022-07-23T03:46:53;96349.50;;;19.62;100.00
19023;BME280;35226;48.606;8.858;2022-07-23T03:49:19;96360.22;;;19.63;100.00
19023;BME280;35226;48.606;8.858;2022-07-23T03:51:44;96370.13;;;19.58;100.00
19023;BME280;35226;48.606;8.858;2022-07-23T03:54:10;96379.03;;;19.57;100.00
19023;BME280;35226;48.606;8.858;2022-07-23T03:56:36;96380.81;;;19.54;100.00
19023;BME280;35226;48.606;8.858;2022-07-23T03:59:01;96374.66;;;19.50;100.00
19023;BME280;35226;48.606;8.858;2022-07-23T04:01:27;96370.03;;;19.47;100.00
19023;BME280;35226;48.606;8.858;2022-07-23T04:03:53;96369.28;;;19.47;100.00
19023;BME280;35226;48.606;8.858;2022-07-23T04:06:19;96368.22;;;19.44;100.00
19023;BME280;35226;48.606;8.858;2022-07-23T04:08:45;96371.31;;;19.46;100.00
19023;BME280;35226;48.606;8.858;2022-07-23T04:11:11;96375.16;;;19.49;100.00
19023;BME280;35226;48.606;8.858;2022-07-23T04:13:36;96375.94;;;19.49;100.00
19023;BME280;35226;48.606;8.858;2022-07-23T04:16:03;96372.84;;;19.47;100.00
19023;BME280;35226;48.606;8.858;2022-07-23T04:18:29;96385.63;;;19.48;100.00
19023;BME280;35226;48.606;8.858;2022-07-23T04:21:21;96383.06;;;19.50;100.00
19023;BME280;35226;48.606;8.858;2022-07-23T04:23:48;96377.22;;;19.54;100.00
19023;BME280;35226;48.606;8.858;2022-07-23T04:26:13;96376.75;;;19.55;100.00
19023;BME280;35226;48.606;8.858;2022-07-23T04:28:39;96384.66;;;19.57;100.00
19023;BME280;35226;48.606;8.858;2022-07-23T04:31:05;96385.41;;;19.57;100.00
19023;BME280;35226;48.606;8.858;2022-07-23T04:33:31;96392.00;;;19.54;100.00
19023;BME280;35226;48.606;8.858;2022-07-23T04:36:01;96394.06;;;19.54;100.00
19023;BME280;35226;48.606;8.858;2022-07-23T04:38:26;96387.94;;;19.55;100.00
19023;BME280;35226;48.606;8.858;2022-07-23T04:40:55;96387.91;;;19.50;100.00
19023;BME280;35226;48.606;8.858;2022-07-23T04:43:21;96402.69;;;19.50;100.00
19023;BME280;35226;48.606;8.858;2022-07-23T04:45:49;96398.88;;;19.48;100.00
19023;BME280;35226;48.606;8.858;2022-07-23T04:48:14;96394.78;;;19.49;100.00
19023;BME280;35226;48.606;8.858;2022-07-23T04:50:40;96383.06;;;19.50;100.00
19023;BME280;35226;48.606;8.858;2022-07-23T04:53:14;96382.53;;;19.46;100.00
19023;BME280;35226;48.606;8.858;2022-07-23T04:55:41;96386.38;;;19.49;100.00
19023;BME280;35226;48.606;8.858;2022-07-23T04:58:06;96388.72;;;19.56;100.00
19023;BME280;35226;48.606;8.858;2022-07-23T05:00:32;96384.88;;;19.53;100.00
19023;BME280;35226;48.606;8.858;2022-07-23T05:02:58;96380.81;;;19.54;100.00
19023;BME280;35226;48.606;8.858;2022-07-23T05:05:23;96381.06;;;19.56;100.00
19023;BME280;35226;48.606;8.858;2022-07-23T05:07:51;96382.38;;;19.61;100.00
19023;BME280;35226;48.606;8.858;2022-07-23T05:10:16;96373.69;;;19.59;100.00
19023;BME280;35226;48.606;8.858;2022-07-23T05:12:42;96372.19;;;19.58;100.00
19023;BME280;35226;48.606;8.858;2022-07-23T05:15:08;96384.59;;;19.51;100.00
19023;BME280;35226;48.606;8.858;2022-07-23T05:17:33;96381.56;;;19.55;100.00
19023;BME280;35226;48.606;8.858;2022-07-23T05:20:01;96374.66;;;19.50;100.00
19023;BME280;35226;48.606;8.858;2022-07-23T05:22:28;96380.25;;;19.50;100.00
19023;BME280;35226;48.606;8.858;2022-07-23T05:24:54;96382.56;;;19.52;100.00
19023;BME280;35226;48.606;8.858;2022-07-23T05:27:20;96383.78;;;19.45;100.00
19023;BME280;35226;48.606;8.858;2022-07-23T05:29:46;96384.88;;;19.53;100.00
19023;BME280;35226;48.606;8.858;2022-07-23T05:32:12;96382.56;;;19.52;100.00
19023;BME280;35226;48.606;8.858;2022-07-23T05:34:44;96391.03;;;19.57;100.00
19023;BME280;35226;48.606;8.858;2022-07-23T05:37:10;96378.50;;;19.53;100.00
19023;BME280;35226;48.606;8.858;2022-07-23T05:39:36;96382.06;;;19.48;100.00
19023;BME280;35226;48.606;8.858;2022-07-23T05:42:02;96389.94;;;19.49;100.00
19023;BME280;35226;48.606;8.858;2022-07-23T05:44:28;96397.13;;;19.56;100.00
19023;BME280;35226;48.606;8.858;2022-07-23T05:46:53;96392.09;;;19.66;100.00
19023;BME280;35226;48.606;8.858;2022-07-23T05:49:25;96391.88;;;19.75;100.00
19023;BME280;35226;48.606;8.858;2022-07-23T05:51:51;96391.63;;;19.78;100.00
19023;BME280;35226;48.606;8.858;2022-07-23T05:54:25;96382.47;;;19.83;100.00
19023;BME280;35226;48.606;8.858;2022-07-23T05:56:51;96379.94;;;19.85;100.00
19023;BME280;35226;48.606;8.858;2022-07-23T05:59:18;96372.31;;;19.91;100.00
19023;BME280;35226;48.606;8.858;2022-07-23T06:01:43;96365.47;;;20.04;100.00
19023;BME280;35226;48.606;8.858;2022-07-23T06:04:10;96357.09;;;20.15;100.00
19023;BME280;35226;48.606;8.858;2022-07-23T06:06:41;96345.38;;;20.27;100.00
19023;BME280;35226;48.606;8.858;2022-07-23T06:09:09;96339.53;;;20.25;100.00
19023;BME280;35226;48.606;8.858;2022-07-23T06:11:37;96343.09;;;20.31;100.00
19023;BME280;35226;48.606;8.858;2022-07-23T06:14:02;96362.78;;;20.37;100.00
19023;BME280;35226;48.606;8.858;2022-07-23T06:16:41;96381.94;;;20.50;100.00
19023;BME280;35226;48.606;8.858;2022-07-23T06:19:07;96384.78;;;20.72;100.00
19023;BME280;35226;48.606;8.858;2022-07-23T06:21:33;96378.91;;;20.64;100.00
19023;BME280;35226;48.606;8.858;2022-07-23T06:23:59;96378.66;;;20.68;100.00
19023;BME280;35226;48.606;8.858;2022-07-23T06:26:24;96384.03;;;20.83;100.00
19023;BME280;35226;48.606;8.858;2022-07-23T06:28:50;96384.78;;;20.83;100.00
19023;BME280;35226;48.606;8.858;2022-07-23T06:31:16;96397.81;;;20.92;100.00
19023;BME280;35226;48.606;8.858;2022-07-23T06:33:42;96399.09;;;21.08;100.00
19023;BME280;35226;48.606;8.858;2022-07-23T06:36:07;96402.94;;;21.04;100.00
19023;BME280;35226;48.606;8.858;2022-07-23T06:38:33;96405.47;;;21.08;100.00
19023;BME280;35226;48.606;8.858;2022-07-23T06:40:59;96399.59;;;21.12;100.00
19023;BME280;35226;48.606;8.858;2022-07-23T06:43:24;96408.28;;;21.14;100.00
19023;BME280;35226;48.606;8.858;2022-07-23T06:45:53;96397.84;;;21.20;100.00
19023;BME280;35226;48.606;8.858;2022-07-23T06:48:19;96410.09;;;21.28;100.00
19023;BME280;35226;48.606;8.858;2022-07-23T06:50:45;96412.63;;;21.37;100.00
19023;BME280;35226;48.606;8.858;2022-07-23T06:53:10;96416.97;;;21.49;100.00
19023;BME280;35226;48.606;8.858;2022-07-23T06:55:40;96414.13;;;21.55;100.00
19023;BME280;35226;48.606;8.858;2022-07-23T06:58:06;96406.72;;;21.57;100.00
19023;BME280;35226;48.606;8.858;2022-07-23T07:00:32;96407.50;;;21.63;100.00
19023;BME280;35226;48.606;8.858;2022-07-23T07:02:58;96402.88;;;21.66;100.00
19023;BME280;35226;48.606;8.858;2022-07-23T07:05:23;96401.59;;;21.67;100.00
19023;BME280;35226;48.606;8.858;2022-07-23T07:07:50;96413.88;;;21.69;100.00
19023;BME280;35226;48.606;8.858;2022-07-23T07:10:16;96413.34;;;21.65;100.00
19023;BME280;35226;48.606;8.858;2022-07-23T07:12:43;96415.41;;;21.59;100.00
19023;BME280;35226;48.606;8.858;2022-07-23T07:15:08;96419.22;;;21.67;100.00
19023;BME280;35226;48.606;8.858;2022-07-23T07:17:34;96414.13;;;21.66;100.00
19023;BME280;35226;48.606;8.858;2022-07-23T07:20:00;96406.44;;;21.72;100.00
19023;BME280;35226;48.606;8.858;2022-07-23T07:22:25;96411.78;;;21.75;100.00
19023;BME280;35226;48.606;8.858;2022-07-23T07:24:51;96422.75;;;21.90;100.00
19023;BME280;35226;48.606;8.858;2022-07-23T07:27:16;96416.84;;;22.05;100.00
19023;BME280;35226;48.606;8.858;2022-07-23T07:29:42;96435.75;;;22.10;100.00
19023;BME280;35226;48.606;8.858;2022-07-23T07:32:08;96434.44;;;22.22;100.00
19023;BME280;35226;48.606;8.858;2022-07-23T07:34:33;96438.50;;;22.27;100.00
19023;BME280;35226;48.606;8.858;2022-07-23T07:36:59;96446.69;;;22.30;100.00
19023;BME280;35226;48.606;8.858;2022-07-23T07:39:24;96451.00;;;22.37;100.00
19023;BME280;35226;48.606;8.858;2022-07-23T07:41:50;96458.38;;;22.45;100.00
19023;BME280;35226;48.606;8.858;2022-07-23T07:44:16;96449.63;;;22.55;100.00
19023;BME280;35226;48.606;8.858;2022-07-23T07:46:41;96451.94;;;22.56;100.00
19023;BME280;35226;48.606;8.858;2022-07-23T07:49:08;96455.50;;;22.57;100.00
19023;BME280;35226;48.606;8.858;2022-07-23T07:51:33;96471.34;;;22.65;100.00
19023;BME280;35226;48.606;8.858;2022-07-23T07:54:00;96474.44;;;22.62;100.00
19023;BME280;35226;48.606;8.858;2022-07-23T07:56:25;96475.41;;;22.70;100.00
19023;BME280;35226;48.606;8.858;2022-07-23T07:58:51;96483.88;;;22.64;100.00
19023;BME280;35226;48.606;8.858;2022-07-23T08:01:17;96483.41;;;22.55;100.00
19023;BME280;35226;48.606;8.858;2022-07-23T08:03:44;96480.06;;;22.62;100.00
19023;BME280;35226;48.606;8.858;2022-07-23T08:06:09;96469.00;;;22.75;100.00
19023;BME280;35226;48.606;8.858;2022-07-23T08:08:35;96470.28;;;22.79;100.00
19023;BME280;35226;48.606;8.858;2022-07-23T08:11:00;96469.50;;;22.73;100.00
19023;BME280;35226;48.606;8.858;2022-07-23T08:13:26;96469.28;;;22.66;100.00
19023;BME280;35226;48.606;8.858;2022-07-23T08:15:51;96478.22;;;22.75;100.00
19023;BME280;35226;48.606;8.858;2022-07-23T08:18:18;96484.75;;;22.95;100.00
19023;BME280;35226;48.606;8.858;2022-07-23T08:20:44;96482.25;;;22.85;100.00
19023;BME280;35226;48.606;8.858;2022-07-23T08:23:10;96472.53;;;22.86;100.00
19023;BME280;35226;48.606;8.858;2022-07-23T08:25:38;96476.03;;;22.98;100.00
19023;BME280;35226;48.606;8.858;2022-07-23T08:28:05;96473.38;;;23.11;100.00
19023;BME280;35226;48.606;8.858;2022-07-23T08:30:32;96471.31;;;23.17;100.00
19023;BME280;35226;48.606;8.858;2022-07-23T08:33:04;96469.53;;;23.14;100.00
19023;BME280;35226;48.606;8.858;2022-07-23T08:35:35;96470.78;;;23.19;100.00
19023;BME280;35226;48.606;8.858;2022-07-23T08:38:03;96472.50;;;23.28;100.00
19023;BME280;35226;48.606;8.858;2022-07-23T08:40:32;96472.34;;;23.14;100.00
19023;BME280;35226;48.606;8.858;2022-07-23T08:42:58;96479.25;;;23.13;100.00
19023;BME280;35226;48.606;8.858;2022-07-23T08:45:25;96484.66;;;23.11;100.00
19023;BME280;35226;48.606;8.858;2022-07-23T08:47:54;96492.63;;;23.07;100.00
19023;BME280;35226;48.606;8.858;2022-07-23T08:50:21;96485.59;;;23.25;100.00
19023;BME280;35226;48.606;8.858;2022-07-23T08:52:51;96497.88;;;23.28;100.00
19023;BME280;35226;48.606;8.858;2022-07-23T08:55:21;96493.88;;;23.47;100.00
19023;BME280;35226;48.606;8.858;2022-07-23T08:57:48;96486.69;;;23.52;100.00
19023;BME280;35226;48.606;8.858;2022-07-23T09:00:15;96483.75;;;23.63;100.00
19023;BME280;35226;48.606;8.858;2022-07-23T09:02:41;96491.19;;;23.66;100.00
19023;BME280;35226;48.606;8.858;2022-07-23T09:05:09;96485.91;;;23.81;100.00
19023;BME280;35226;48.606;8.858;2022-07-23T09:07:37;96489.91;;;23.91;100.00
19023;BME280;35226;48.606;8.858;2022-07-23T09:10:11;96486.28;;;23.96;100.00
19023;BME280;35226;48.606;8.858;2022-07-23T09:12:37;96485.97;;;24.00;100.00
19023;BME280;35226;48.606;8.858;2022-07-23T09:15:08;96483.09;;;24.06;100.00
19023;BME280;35226;48.606;8.858;2022-07-23T09:17:38;96485.91;;;24.06;100.00
19023;BME280;35226;48.606;8.858;2022-07-23T09:20:10;96486.78;;;24.44;100.00
19023;BME280;35226;48.606;8.858;2022-07-23T09:22:36;96489.91;;;24.40;100.00
19023;BME280;35226;48.606;8.858;2022-07-23T09:25:07;96467.69;;;24.31;100.00
19023;BME280;35226;48.606;8.858;2022-07-23T09:30:14;96475.72;;;24.46;100.00
19023;BME280;35226;48.606;8.858;2022-07-23T09:32:40;96467.13;;;24.57;100.00
19023;BME280;35226;48.606;8.858;2022-07-23T09:35:06;96474.84;;;24.56;100.00
19023;BME280;35226;48.606;8.858;2022-07-23T09:37:32;96471.09;;;24.67;100.00
19023;BME280;35226;48.606;8.858;2022-07-23T09:40:09;96470.16;;;24.59;100.00
19023;BME280;35226;48.606;8.858;2022-07-23T09:42:37;96465.72;;;24.45;100.00
19023;BME280;35226;48.606;8.858;2022-07-23T09:45:02;96464.88;;;24.68;100.00
19023;BME280;35226;48.606;8.858;2022-07-23T09:47:31;96464.44;;;24.64;96.55
19023;BME280;35226;48.606;8.858;2022-07-23T09:50:02;96458.94;;;24.72;100.00
19023;BME280;35226;48.606;8.858;2022-07-23T09:52:33;96457.78;;;24.81;96.67
19023;BME280;35226;48.606;8.858;2022-07-23T09:55:01;96455.97;;;24.83;94.61
19023;BME280;35226;48.606;8.858;2022-07-23T09:57:27;96455.50;;;24.98;96.54
19023;BME280;35226;48.606;8.858;2022-07-23T09:59:53;96465.06;;;25.14;90.32
19023;BME280;35226;48.606;8.858;2022-07-23T10:02:20;96471.66;;;25.03;90.21
19023;BME280;35226;48.606;8.858;2022-07-23T10:05:07;96469.03;;;25.24;88.78
19023;BME280;35226;48.606;8.858;2022-07-23T10:08:12;96462.72;;;25.31;94.30
19023;BME280;35226;48.606;8.858;2022-07-23T10:10:56;96468.78;;;25.54;85.69
19023;BME280;35226;48.606;8.858;2022-07-23T10:13:24;96462.97;;;25.65;84.78
19023;BME280;35226;48.606;8.858;2022-07-23T10:16:10;96463.03;;;25.59;83.33
19023;BME280;35226;48.606;8.858;2022-07-23T10:18:35;96470.16;;;25.79;90.95
19023;BME280;35226;48.606;8.858;2022-07-23T10:21:05;96460.72;;;25.90;88.08
19023;BME280;35226;48.606;8.858;2022-07-23T10:23:40;96465.44;;;26.13;83.62
19023;BME280;35226;48.606;8.858;2022-07-23T10:26:19;96462.47;;;26.19;83.89
19023;BME280;35226;48.606;8.858;2022-07-23T10:29:29;96463.28;;;26.33;84.68
19023;BME280;35226;48.606;8.858;2022-07-23T10:37:22;96456.63;;;26.43;78.09
19023;BME280;35226;48.606;8.858;2022-07-23T10:42:36;96441.63;;;26.82;76.76
19023;BME280;35226;48.606;8.858;2022-07-23T10:45:34;96436.84;;;27.11;69.88
19023;BME280;35226;48.606;8.858;2022-07-23T10:48:13;96453.03;;;26.90;69.46
19023;BME280;35226;48.606;8.858;2022-07-23T10:50:40;96451.25;;;27.34;76.18
19023;BME280;35226;48.606;8.858;2022-07-23T10:58:00;96445.53;;;27.13;71.82
19023;BME280;35226;48.606;8.858;2022-07-23T11:00:28;96445.28;;;27.24;67.76
19023;BME280;35226;48.606;8.858;2022-07-23T11:02:56;96450.84;;;27.30;66.05
19023;BME280;35226;48.606;8.858;2022-07-23T11:05:23;96447.50;;;27.18;64.35
19023;BME280;35226;48.606;8.858;2022-07-23T11:10:39;96450.94;;;27.04;63.76
19023;BME280;35226;48.606;8.858;2022-07-23T11:24:00;96452.44;;;28.29;53.98
19023;BME280;35226;48.606;8.858;2022-07-23T11:37:05;96437.63;;;28.03;61.92
19023;BME280;35226;48.606;8.858;2022-07-23T11:39:32;96431.88;;;27.87;58.63
19023;BME280;35226;48.606;8.858;2022-07-23T11:41:59;96441.47;;;27.43;56.53
19023;BME280;35226;48.606;8.858;2022-07-23T11:44:35;96433.34;;;27.60;56.62
19023;BME280;35226;48.606;8.858;2022-07-23T11:47:06;96435.72;;;27.97;52.46
19023;BME280;35226;48.606;8.858;2022-07-23T11:49:32;96430.56;;;27.88;54.80
19023;BME280;35226;48.606;8.858;2022-07-23T11:52:16;96438.81;;;27.79;58.13
19023;BME280;35226;48.606;8.858;2022-07-23T11:54:52;96435.03;;;27.84;55.19
19023;BME280;35226;48.606;8.858;2022-07-23T11:57:19;96430.34;;;28.15;52.17
19023;BME280;35226;48.606;8.858;2022-07-23T11:59:47;96436.00;;;28.43;54.17
19023;BME280;35226;48.606;8.858;2022-07-23T12:02:15;96430.34;;;28.15;55.21
19023;BME280;35226;48.606;8.858;2022-07-23T12:04:43;96428.34;;;28.30;54.50
19023;BME280;35226;48.606;8.858;2022-07-23T12:07:34;96420.84;;;27.84;53.13
19023;BME280;35226;48.606;8.858;2022-07-23T12:10:21;96425.47;;;27.94;55.81
19023;BME280;35226;48.606;8.858;2022-07-23T12:12:48;96421.44;;;28.11;53.62
19023;BME280;35226;48.606;8.858;2022-07-23T12:15:16;96425.34;;;28.00;53.39
19023;BME280;35226;48.606;8.858;2022-07-23T12:17:46;96423.03;;;27.70;55.27
19023;BME280;35226;48.606;8.858;2022-07-23T12:20:14;96420.50;;;27.87;55.38
19023;BME280;35226;48.606;8.858;2022-07-23T12:22:46;96429.00;;;27.59;57.70
19023;BME280;35226;48.606;8.858;2022-07-23T12:25:15;96416.38;;;28.17;59.28
19023;BME280;35226;48.606;8.858;2022-07-23T12:27:41;96429.56;;;28.14;58.19
19023;BME280;35226;48.606;8.858;2022-07-23T12:30:20;96426.69;;;28.07;56.89
19023;BME280;35226;48.606;8.858;2022-07-23T12:32:47;96423.03;;;28.19;57.15
19023;BME280;35226;48.606;8.858;2022-07-23T12:35:13;96426.38;;;27.89;56.87
19023;BME280;35226;48.606;8.858;2022-07-23T12:37:41;96426.31;;;27.82;59.75
19023;BME280;35226;48.606;8.858;2022-07-23T12:40:28;96421.81;;;27.86;61.71
19023;BME280;35226;48.606;8.858;2022-07-23T12:43:03;96429.66;;;27.73;61.68
19023;BME280;35226;48.606;8.858;2022-07-23T12:45:43;96427.31;;;27.63;63.95
19023;BME280;35226;48.606;8.858;2022-07-23T12:48:16;96435.47;;;27.46;64.10
19023;BME280;35226;48.606;8.858;2022-07-23T12:50:44;96436.09;;;27.52;67.95
19023;BME280;35226;48.606;8.858;2022-07-23T12:53:43;96425.94;;;27.57;67.27
19023;BME280;35226;48.606;8.858;2022-07-23T12:56:11;96424.28;;;27.61;70.45
19023;BME280;35226;48.606;8.858;2022-07-23T12:58:48;96422.41;;;27.64;64.03
19023;BME280;35226;48.606;8.858;2022-07-23T13:03:58;96433.66;;;27.98;60.37
19023;BME280;35226;48.606;8.858;2022-07-23T13:06:25;96430.09;;;28.33;62.63
19023;BME280;35226;48.606;8.858;2022-07-23T13:08:52;96430.78;;;28.62;57.10
19023;BME280;35226;48.606;8.858;2022-07-23T13:11:17;96428.28;;;28.87;57.13
19023;BME280;35226;48.606;8.858;2022-07-23T13:13:43;96433.41;;;28.89;55.56
19023;BME280;35226;48.606;8.858;2022-07-23T13:16:09;96437.28;;;29.29;54.95
19023;BME280;35226;48.606;8.858;2022-07-23T13:18:34;96436.97;;;29.71;50.90
19023;BME280;35226;48.606;8.858;2022-07-23T13:21:02;96430.13;;;30.12;48.30
19023;BME280;35226;48.606;8.858;2022-07-23T13:23:28;96444.56;;;29.76;50.12
19023;BME280;35226;48.606;8.858;2022-07-23T13:28:35;96450.47;;;28.96;50.61
19023;BME280;35226;48.606;8.858;2022-07-23T13:31:01;96445.59;;;29.20;50.38
19023;BME280;35226;48.606;8.858;2022-07-23T13:33:27;96450.94;;;28.72;50.96
19023;BME280;35226;48.606;8.858;2022-07-23T13:35:52;96453.72;;;29.00;52.70
19023;BME280;35226;48.606;8.858;2022-07-23T13:38:19;96455.94;;;28.51;52.00
19023;BME280;35226;48.606;8.858;2022-07-23T13:40:47;96451.00;;;28.51;52.47
19023;BME280;35226;48.606;8.858;2022-07-23T13:43:16;96455.75;;;28.85;54.72